Tignall, Georgia
Current Conditions -  °F | °C
As of 1:15 PM on Thursday 27 Nov 2014 (Local Time) from KIIY Reporting Station
Scattered Clouds Scattered Clouds  
Wind Chill: 54°   Ceiling: Unl
Heat Index: 54°   Visibility: 10mi
Dew Point: 36°   Wind: 7mph
Humidity: 51%   Direction: 300°WNW
Pressure: 30.19"   Gusts: 18mph
Location:  33.87°N, 82.74°W
Report Text: KIIY 271815Z AUTO 30006G16KT 10SM SCT048 12/02 A3019 RMK AO2
Loading
Personal Weather Stations






























Interactive Weather Map New forecast layout! Learn more

10-Day Weather Forecast

Advertisements
Track Severe Weather on mobile